Portada
METAR-TAF:

METAR-TAF

Aeropuertos :

Aeropuerto de Ilo

Ilo, Perú

latitud: 17-41-45S, longitud: 071-20-35W, altitud: 22 m

METAR: falta

Hora: 23:04 (04:04 UTC)

Pronóstico

El informe se hizo hace 11 horas y 4 minutos, a las 17:00 UTC
Pronóstico válido del 20 a las 18 UTC al 21 a las 18 UTC
Viento 8 kt del sur-sureste
Visibilidad 10 km o más
Cielo nuboso a una altura de 3000 ft

TAF: SPLO 201700Z 2018/2118 15008KT 9999 BKN030 TX22/2019Z TN17/2110Z

Observaciones y pronósticos meteorológicos de más de 4000 aeropuertos (mensajes METAR y TAF).

Los puntos amarillos y rojos representan las estaciones disponibles.

Ponga el ratón en el punto deseado para ver el nombre de la estación.

Haga clic para ver las observaciones y los pronósticos meteorológicos.

Para cambiar el mapa : haga clic en los botones verdes con una cruz de color negro para hacer un zoom, en el botón verde con un guión para alejar o en las flechas verdes para mapas adyacentes.


METAR-TAF: